sensor_id;sensor_type;location;lat;lon;timestamp;temperature;humidity
38428;DHT22;24211;49.980;19.776;2023-07-31T00:01:42;21.30;99.60
38428;DHT22;24211;49.980;19.776;2023-07-31T00:04:10;21.30;99.70
38428;DHT22;24211;49.980;19.776;2023-07-31T00:06:37;21.30;99.70
38428;DHT22;24211;49.980;19.776;2023-07-31T00:09:05;21.20;99.80
38428;DHT22;24211;49.980;19.776;2023-07-31T00:11:32;21.10;99.80
38428;DHT22;24211;49.980;19.776;2023-07-31T00:13:59;21.10;99.90
38428;DHT22;24211;49.980;19.776;2023-07-31T00:16:27;21.10;99.90
38428;DHT22;24211;49.980;19.776;2023-07-31T00:18:55;21.00;99.90
38428;DHT22;24211;49.980;19.776;2023-07-31T00:21:23;21.00;99.90
38428;DHT22;24211;49.980;19.776;2023-07-31T00:23:52;20.90;99.90
38428;DHT22;24211;49.980;19.776;2023-07-31T00:26:19;20.90;99.90
38428;DHT22;24211;49.980;19.776;2023-07-31T00:28:46;20.90;99.90
38428;DHT22;24211;49.980;19.776;2023-07-31T00:31:14;20.80;99.90
38428;DHT22;24211;49.980;19.776;2023-07-31T00:33:41;20.80;99.90
38428;DHT22;24211;49.980;19.776;2023-07-31T00:36:08;20.70;99.90
38428;DHT22;24211;49.980;19.776;2023-07-31T00:38:35;20.80;99.90
38428;DHT22;24211;49.980;19.776;2023-07-31T00:41:03;20.70;99.90
38428;DHT22;24211;49.980;19.776;2023-07-31T00:43:30;20.70;99.90
38428;DHT22;24211;49.980;19.776;2023-07-31T00:45:57;20.70;99.90
38428;DHT22;24211;49.980;19.776;2023-07-31T00:48:25;20.60;99.90
38428;DHT22;24211;49.980;19.776;2023-07-31T00:50:53;20.60;99.90
38428;DHT22;24211;49.980;19.776;2023-07-31T00:53:21;20.60;99.90
38428;DHT22;24211;49.980;19.776;2023-07-31T00:55:50;20.60;99.90
38428;DHT22;24211;49.980;19.776;2023-07-31T00:58:19;20.60;99.90
38428;DHT22;24211;49.980;19.776;2023-07-31T01:00:47;20.60;99.90
38428;DHT22;24211;49.980;19.776;2023-07-31T01:03:14;20.50;99.90
38428;DHT22;24211;49.980;19.776;2023-07-31T01:09:06;20.50;99.90
38428;DHT22;24211;49.980;19.776;2023-07-31T01:11:53;20.50;99.90
38428;DHT22;24211;49.980;19.776;2023-07-31T01:14:23;20.40;99.90
38428;DHT22;24211;49.980;19.776;2023-07-31T01:16:50;20.40;99.90
38428;DHT22;24211;49.980;19.776;2023-07-31T01:19:22;20.40;99.90
38428;DHT22;24211;49.980;19.776;2023-07-31T01:27:41;20.30;99.90
38428;DHT22;24211;49.980;19.776;2023-07-31T01:30:19;20.30;99.90
38428;DHT22;24211;49.980;19.776;2023-07-31T01:32:53;20.20;99.90
38428;DHT22;24211;49.980;19.776;2023-07-31T01:35:23;20.20;99.90
38428;DHT22;24211;49.980;19.776;2023-07-31T01:37:54;20.10;99.90
38428;DHT22;24211;49.980;19.776;2023-07-31T01:40:22;20.10;99.90
38428;DHT22;24211;49.980;19.776;2023-07-31T01:42:49;20.20;99.90
38428;DHT22;24211;49.980;19.776;2023-07-31T01:45:16;20.10;99.90
38428;DHT22;24211;49.980;19.776;2023-07-31T01:47:44;20.10;99.90
38428;DHT22;24211;49.980;19.776;2023-07-31T01:50:11;20.10;99.90
38428;DHT22;24211;49.980;19.776;2023-07-31T01:52:39;20.10;99.90
38428;DHT22;24211;49.980;19.776;2023-07-31T01:55:08;20.20;99.90
38428;DHT22;24211;49.980;19.776;2023-07-31T01:57:37;20.10;99.90
38428;DHT22;24211;49.980;19.776;2023-07-31T02:00:05;20.20;99.90
38428;DHT22;24211;49.980;19.776;2023-07-31T02:02:37;20.20;99.90
38428;DHT22;24211;49.980;19.776;2023-07-31T02:05:05;20.20;99.90
38428;DHT22;24211;49.980;19.776;2023-07-31T02:07:33;20.10;99.90
38428;DHT22;24211;49.980;19.776;2023-07-31T02:10:00;20.10;99.90
38428;DHT22;24211;49.980;19.776;2023-07-31T02:12:28;20.20;99.90
38428;DHT22;24211;49.980;19.776;2023-07-31T02:14:57;20.20;99.90
38428;DHT22;24211;49.980;19.776;2023-07-31T02:17:25;20.20;99.90
38428;DHT22;24211;49.980;19.776;2023-07-31T02:19:52;20.20;99.90
38428;DHT22;24211;49.980;19.776;2023-07-31T02:22:20;20.10;99.90
38428;DHT22;24211;49.980;19.776;2023-07-31T02:24:47;20.10;99.90
38428;DHT22;24211;49.980;19.776;2023-07-31T02:27:14;20.10;99.90
38428;DHT22;24211;49.980;19.776;2023-07-31T02:29:41;20.10;99.90
38428;DHT22;24211;49.980;19.776;2023-07-31T02:32:09;20.10;99.90
38428;DHT22;24211;49.980;19.776;2023-07-31T02:34:36;20.00;99.90
38428;DHT22;24211;49.980;19.776;2023-07-31T02:37:03;20.00;99.90
38428;DHT22;24211;49.980;19.776;2023-07-31T02:39:31;20.00;99.90
38428;DHT22;24211;49.980;19.776;2023-07-31T02:42:00;20.00;99.90
38428;DHT22;24211;49.980;19.776;2023-07-31T02:44:27;20.00;99.90
38428;DHT22;24211;49.980;19.776;2023-07-31T02:46:54;19.90;99.90
38428;DHT22;24211;49.980;19.776;2023-07-31T02:49:21;19.90;99.90
38428;DHT22;24211;49.980;19.776;2023-07-31T02:51:49;19.90;99.90
38428;DHT22;24211;49.980;19.776;2023-07-31T02:54:16;19.80;99.90
38428;DHT22;24211;49.980;19.776;2023-07-31T02:56:43;19.80;99.90
38428;DHT22;24211;49.980;19.776;2023-07-31T02:59:10;19.70;99.90
38428;DHT22;24211;49.980;19.776;2023-07-31T03:01:38;19.60;99.90
38428;DHT22;24211;49.980;19.776;2023-07-31T03:04:05;19.60;99.90
38428;DHT22;24211;49.980;19.776;2023-07-31T03:06:34;19.50;99.90
38428;DHT22;24211;49.980;19.776;2023-07-31T03:09:04;19.60;99.90
38428;DHT22;24211;49.980;19.776;2023-07-31T03:11:31;19.60;99.90
38428;DHT22;24211;49.980;19.776;2023-07-31T03:13:58;19.70;99.90
38428;DHT22;24211;49.980;19.776;2023-07-31T03:16:27;19.80;99.90
38428;DHT22;24211;49.980;19.776;2023-07-31T03:18:54;19.80;99.90
38428;DHT22;24211;49.980;19.776;2023-07-31T03:21:22;19.80;99.90
38428;DHT22;24211;49.980;19.776;2023-07-31T03:23:50;19.80;99.90
38428;DHT22;24211;49.980;19.776;2023-07-31T03:26:17;19.80;99.90
38428;DHT22;24211;49.980;19.776;2023-07-31T03:28:44;19.80;99.90
38428;DHT22;24211;49.980;19.776;2023-07-31T03:31:11;19.80;99.90
38428;DHT22;24211;49.980;19.776;2023-07-31T03:33:39;19.80;99.90
38428;DHT22;24211;49.980;19.776;2023-07-31T03:36:06;19.80;99.90
38428;DHT22;24211;49.980;19.776;2023-07-31T03:38:34;19.80;99.90
38428;DHT22;24211;49.980;19.776;2023-07-31T03:41:03;19.80;99.90
38428;DHT22;24211;49.980;19.776;2023-07-31T03:43:33;19.80;99.90
38428;DHT22;24211;49.980;19.776;2023-07-31T03:46:03;19.80;99.90
38428;DHT22;24211;49.980;19.776;2023-07-31T03:48:30;19.80;99.90
38428;DHT22;24211;49.980;19.776;2023-07-31T03:50:57;19.80;99.90
38428;DHT22;24211;49.980;19.776;2023-07-31T03:53:24;19.80;99.90
38428;DHT22;24211;49.980;19.776;2023-07-31T03:55:52;19.80;99.90
38428;DHT22;24211;49.980;19.776;2023-07-31T03:58:21;19.80;99.90
38428;DHT22;24211;49.980;19.776;2023-07-31T04:00:49;19.90;99.90
38428;DHT22;24211;49.980;19.776;2023-07-31T04:03:16;19.90;99.90
38428;DHT22;24211;49.980;19.776;2023-07-31T04:05:44;19.90;99.90
38428;DHT22;24211;49.980;19.776;2023-07-31T04:08:11;20.00;99.90
38428;DHT22;24211;49.980;19.776;2023-07-31T04:10:38;20.00;99.90
38428;DHT22;24211;49.980;19.776;2023-07-31T04:13:13;20.00;99.90
38428;DHT22;24211;49.980;19.776;2023-07-31T04:15:41;20.00;99.90
38428;DHT22;24211;49.980;19.776;2023-07-31T04:18:08;19.90;99.90
38428;DHT22;24211;49.980;19.776;2023-07-31T04:20:55;20.00;99.90
38428;DHT22;24211;49.980;19.776;2023-07-31T04:23:29;20.10;99.90
38428;DHT22;24211;49.980;19.776;2023-07-31T04:25:56;20.10;99.90
38428;DHT22;24211;49.980;19.776;2023-07-31T04:28:24;20.10;99.90
38428;DHT22;24211;49.980;19.776;2023-07-31T04:30:53;20.00;99.90
38428;DHT22;24211;49.980;19.776;2023-07-31T04:33:24;20.10;99.90
38428;DHT22;24211;49.980;19.776;2023-07-31T04:36:00;20.10;99.90
38428;DHT22;24211;49.980;19.776;2023-07-31T04:38:27;20.20;99.90
38428;DHT22;24211;49.980;19.776;2023-07-31T04:40:59;20.20;99.90
38428;DHT22;24211;49.980;19.776;2023-07-31T04:43:26;20.30;99.90
38428;DHT22;24211;49.980;19.776;2023-07-31T04:46:00;20.30;99.90
38428;DHT22;24211;49.980;19.776;2023-07-31T04:48:27;20.40;99.90
38428;DHT22;24211;49.980;19.776;2023-07-31T04:50:56;20.40;99.90
38428;DHT22;24211;49.980;19.776;2023-07-31T04:53:24;20.40;99.90
38428;DHT22;24211;49.980;19.776;2023-07-31T04:55:51;20.30;99.90
38428;DHT22;24211;49.980;19.776;2023-07-31T04:58:18;20.30;99.90
38428;DHT22;24211;49.980;19.776;2023-07-31T05:00:46;20.30;99.90
38428;DHT22;24211;49.980;19.776;2023-07-31T05:03:13;20.20;99.90
38428;DHT22;24211;49.980;19.776;2023-07-31T05:05:41;20.20;99.90
38428;DHT22;24211;49.980;19.776;2023-07-31T05:08:12;20.30;99.90
38428;DHT22;24211;49.980;19.776;2023-07-31T05:10:46;20.40;99.90
38428;DHT22;24211;49.980;19.776;2023-07-31T05:13:13;20.40;99.90
38428;DHT22;24211;49.980;19.776;2023-07-31T05:15:42;20.40;99.90
38428;DHT22;24211;49.980;19.776;2023-07-31T05:18:09;20.30;99.90
38428;DHT22;24211;49.980;19.776;2023-07-31T05:20:44;20.30;99.90
38428;DHT22;24211;49.980;19.776;2023-07-31T05:23:22;20.30;99.90
38428;DHT22;24211;49.980;19.776;2023-07-31T05:25:50;20.40;99.90
38428;DHT22;24211;49.980;19.776;2023-07-31T05:28:17;20.40;99.90
38428;DHT22;24211;49.980;19.776;2023-07-31T05:30:44;20.40;99.90
38428;DHT22;24211;49.980;19.776;2023-07-31T05:33:19;20.50;99.90
38428;DHT22;24211;49.980;19.776;2023-07-31T05:35:47;20.50;99.90
38428;DHT22;24211;49.980;19.776;2023-07-31T05:38:15;20.60;99.90
38428;DHT22;24211;49.980;19.776;2023-07-31T05:40:43;20.60;99.90
38428;DHT22;24211;49.980;19.776;2023-07-31T05:43:10;20.60;99.90
38428;DHT22;24211;49.980;19.776;2023-07-31T05:45:37;20.60;99.90
38428;DHT22;24211;49.980;19.776;2023-07-31T05:48:10;20.60;99.90
38428;DHT22;24211;49.980;19.776;2023-07-31T05:50:38;20.50;99.90
38428;DHT22;24211;49.980;19.776;2023-07-31T05:53:11;20.40;99.90
38428;DHT22;24211;49.980;19.776;2023-07-31T05:55:42;20.40;99.90
38428;DHT22;24211;49.980;19.776;2023-07-31T05:58:10;20.40;99.90
38428;DHT22;24211;49.980;19.776;2023-07-31T06:00:37;20.40;99.90
38428;DHT22;24211;49.980;19.776;2023-07-31T06:03:04;20.30;99.90
38428;DHT22;24211;49.980;19.776;2023-07-31T06:05:32;20.40;99.90
38428;DHT22;24211;49.980;19.776;2023-07-31T06:07:59;20.50;99.90
38428;DHT22;24211;49.980;19.776;2023-07-31T06:10:27;20.50;99.90
38428;DHT22;24211;49.980;19.776;2023-07-31T06:12:55;20.60;99.90
38428;DHT22;24211;49.980;19.776;2023-07-31T06:15:27;20.60;99.90
38428;DHT22;24211;49.980;19.776;2023-07-31T06:17:54;20.70;99.90
38428;DHT22;24211;49.980;19.776;2023-07-31T06:20:22;20.80;99.90
38428;DHT22;24211;49.980;19.776;2023-07-31T06:22:49;20.80;99.90
38428;DHT22;24211;49.980;19.776;2023-07-31T06:25:16;20.90;99.90
38428;DHT22;24211;49.980;19.776;2023-07-31T06:27:44;20.90;99.90
38428;DHT22;24211;49.980;19.776;2023-07-31T06:30:11;20.90;99.90
38428;DHT22;24211;49.980;19.776;2023-07-31T06:32:39;20.90;99.90
38428;DHT22;24211;49.980;19.776;2023-07-31T06:35:12;21.00;99.90
38428;DHT22;24211;49.980;19.776;2023-07-31T06:37:39;21.10;99.90
38428;DHT22;24211;49.980;19.776;2023-07-31T06:40:08;21.20;99.90
38428;DHT22;24211;49.980;19.776;2023-07-31T06:42:36;21.30;99.90
38428;DHT22;24211;49.980;19.776;2023-07-31T06:45:22;21.30;99.90
38428;DHT22;24211;49.980;19.776;2023-07-31T06:47:52;21.40;99.90
38428;DHT22;24211;49.980;19.776;2023-07-31T06:50:19;21.50;99.90
38428;DHT22;24211;49.980;19.776;2023-07-31T06:52:47;21.50;99.90
38428;DHT22;24211;49.980;19.776;2023-07-31T06:55:19;21.50;99.90
38428;DHT22;24211;49.980;19.776;2023-07-31T06:58:01;21.60;99.90
38428;DHT22;24211;49.980;19.776;2023-07-31T07:00:28;21.70;99.90
38428;DHT22;24211;49.980;19.776;2023-07-31T07:02:55;21.70;99.90
38428;DHT22;24211;49.980;19.776;2023-07-31T07:05:23;21.80;99.90
38428;DHT22;24211;49.980;19.776;2023-07-31T07:07:50;21.80;99.90
38428;DHT22;24211;49.980;19.776;2023-07-31T07:10:21;21.90;99.90
38428;DHT22;24211;49.980;19.776;2023-07-31T07:12:48;22.00;99.90
38428;DHT22;24211;49.980;19.776;2023-07-31T07:15:24;22.10;99.90
38428;DHT22;24211;49.980;19.776;2023-07-31T07:17:51;22.10;99.90
38428;DHT22;24211;49.980;19.776;2023-07-31T07:20:19;22.20;99.90
38428;DHT22;24211;49.980;19.776;2023-07-31T07:22:47;22.20;99.90
38428;DHT22;24211;49.980;19.776;2023-07-31T07:25:16;22.30;99.90
38428;DHT22;24211;49.980;19.776;2023-07-31T07:27:43;22.30;99.90
38428;DHT22;24211;49.980;19.776;2023-07-31T07:30:11;22.40;99.90
38428;DHT22;24211;49.980;19.776;2023-07-31T07:32:38;22.50;99.90
38428;DHT22;24211;49.980;19.776;2023-07-31T07:35:11;22.50;99.90
38428;DHT22;24211;49.980;19.776;2023-07-31T07:37:43;22.60;99.90
38428;DHT22;24211;49.980;19.776;2023-07-31T07:40:10;22.70;99.90
38428;DHT22;24211;49.980;19.776;2023-07-31T07:42:38;22.80;99.90
38428;DHT22;24211;49.980;19.776;2023-07-31T07:45:08;22.80;99.90
38428;DHT22;24211;49.980;19.776;2023-07-31T07:47:35;22.80;99.90
38428;DHT22;24211;49.980;19.776;2023-07-31T07:50:03;22.80;99.90
38428;DHT22;24211;49.980;19.776;2023-07-31T07:52:35;22.90;99.90
38428;DHT22;24211;49.980;19.776;2023-07-31T07:55:03;22.90;99.90
38428;DHT22;24211;49.980;19.776;2023-07-31T07:57:31;23.00;99.90
38428;DHT22;24211;49.980;19.776;2023-07-31T07:59:58;23.20;99.90
38428;DHT22;24211;49.980;19.776;2023-07-31T08:02:39;23.30;99.90
38428;DHT22;24211;49.980;19.776;2023-07-31T08:05:08;23.50;99.90
38428;DHT22;24211;49.980;19.776;2023-07-31T08:07:35;23.70;99.90
38428;DHT22;24211;49.980;19.776;2023-07-31T08:10:09;23.80;99.90
38428;DHT22;24211;49.980;19.776;2023-07-31T08:12:37;23.90;99.90
38428;DHT22;24211;49.980;19.776;2023-07-31T08:15:05;24.10;99.90
38428;DHT22;24211;49.980;19.776;2023-07-31T08:17:33;24.20;99.90
38428;DHT22;24211;49.980;19.776;2023-07-31T08:20:01;24.30;99.90
38428;DHT22;24211;49.980;19.776;2023-07-31T08:22:49;24.50;99.90
38428;DHT22;24211;49.980;19.776;2023-07-31T08:25:17;24.60;99.90
38428;DHT22;24211;49.980;19.776;2023-07-31T08:27:44;24.80;99.90
38428;DHT22;24211;49.980;19.776;2023-07-31T08:30:12;24.90;99.90
38428;DHT22;24211;49.980;19.776;2023-07-31T08:32:48;24.90;99.90
38428;DHT22;24211;49.980;19.776;2023-07-31T08:35:27;25.00;99.90
38428;DHT22;24211;49.980;19.776;2023-07-31T08:37:59;25.00;99.90
38428;DHT22;24211;49.980;19.776;2023-07-31T08:40:27;25.10;99.90
38428;DHT22;24211;49.980;19.776;2023-07-31T08:42:55;25.10;99.90
38428;DHT22;24211;49.980;19.776;2023-07-31T08:45:30;25.20;99.90
38428;DHT22;24211;49.980;19.776;2023-07-31T08:48:12;25.20;99.90
38428;DHT22;24211;49.980;19.776;2023-07-31T08:50:43;25.20;99.90
38428;DHT22;24211;49.980;19.776;2023-07-31T08:53:10;25.20;99.90
38428;DHT22;24211;49.980;19.776;2023-07-31T08:55:38;25.30;99.90
38428;DHT22;24211;49.980;19.776;2023-07-31T08:58:05;25.40;99.90
38428;DHT22;24211;49.980;19.776;2023-07-31T09:00:41;25.40;99.90
38428;DHT22;24211;49.980;19.776;2023-07-31T09:03:16;25.50;99.90
38428;DHT22;24211;49.980;19.776;2023-07-31T09:05:46;25.60;99.90
38428;DHT22;24211;49.980;19.776;2023-07-31T09:08:18;25.70;99.90
38428;DHT22;24211;49.980;19.776;2023-07-31T09:10:48;26.00;99.90
38428;DHT22;24211;49.980;19.776;2023-07-31T09:13:19;26.10;99.90
38428;DHT22;24211;49.980;19.776;2023-07-31T09:15:48;26.30;99.90
38428;DHT22;24211;49.980;19.776;2023-07-31T09:18:18;26.50;99.90
38428;DHT22;24211;49.980;19.776;2023-07-31T09:21:05;26.80;99.90
38428;DHT22;24211;49.980;19.776;2023-07-31T09:23:44;27.00;99.90
38428;DHT22;24211;49.980;19.776;2023-07-31T09:26:34;27.20;99.90
38428;DHT22;24211;49.980;19.776;2023-07-31T09:29:19;27.40;99.90
38428;DHT22;24211;49.980;19.776;2023-07-31T09:31:56;27.60;99.90
38428;DHT22;24211;49.980;19.776;2023-07-31T09:34:36;27.80;99.90
38428;DHT22;24211;49.980;19.776;2023-07-31T09:37:08;28.10;99.90
38428;DHT22;24211;49.980;19.776;2023-07-31T09:39:49;28.40;99.90
38428;DHT22;24211;49.980;19.776;2023-07-31T09:42:26;28.80;99.90
38428;DHT22;24211;49.980;19.776;2023-07-31T09:45:07;29.00;99.90
38428;DHT22;24211;49.980;19.776;2023-07-31T09:47:36;29.30;99.90
38428;DHT22;24211;49.980;19.776;2023-07-31T09:50:07;29.60;99.40
38428;DHT22;24211;49.980;19.776;2023-07-31T09:52:38;29.70;99.60
38428;DHT22;24211;49.980;19.776;2023-07-31T09:55:06;30.00;99.20
38428;DHT22;24211;49.980;19.776;2023-07-31T09:57:41;30.20;98.90
38428;DHT22;24211;49.980;19.776;2023-07-31T10:00:12;30.30;98.90
38428;DHT22;24211;49.980;19.776;2023-07-31T10:02:45;30.70;97.00
38428;DHT22;24211;49.980;19.776;2023-07-31T10:05:14;30.80;96.50
38428;DHT22;24211;49.980;19.776;2023-07-31T10:07:57;30.90;95.90
38428;DHT22;24211;49.980;19.776;2023-07-31T10:10:25;31.00;95.70
38428;DHT22;24211;49.980;19.776;2023-07-31T10:12:59;31.10;95.30
38428;DHT22;24211;49.980;19.776;2023-07-31T10:15:29;31.10;95.00
38428;DHT22;24211;49.980;19.776;2023-07-31T10:18:06;31.10;95.50
38428;DHT22;24211;49.980;19.776;2023-07-31T10:20:34;31.30;95.60
38428;DHT22;24211;49.980;19.776;2023-07-31T10:23:03;31.60;95.60
38428;DHT22;24211;49.980;19.776;2023-07-31T10:25:32;31.80;95.40
38428;DHT22;24211;49.980;19.776;2023-07-31T10:28:00;31.90;94.80
38428;DHT22;24211;49.980;19.776;2023-07-31T10:30:30;31.90;95.30
38428;DHT22;24211;49.980;19.776;2023-07-31T10:33:06;32.10;94.20
38428;DHT22;24211;49.980;19.776;2023-07-31T10:35:34;32.20;94.00
38428;DHT22;24211;49.980;19.776;2023-07-31T10:38:12;32.30;93.80
38428;DHT22;24211;49.980;19.776;2023-07-31T10:40:43;32.50;94.20
38428;DHT22;24211;49.980;19.776;2023-07-31T10:43:24;32.80;93.10
38428;DHT22;24211;49.980;19.776;2023-07-31T10:46:08;33.00;92.50
38428;DHT22;24211;49.980;19.776;2023-07-31T10:48:40;32.90;91.70
38428;DHT22;24211;49.980;19.776;2023-07-31T10:51:16;32.90;91.60
38428;DHT22;24211;49.980;19.776;2023-07-31T10:53:48;32.80;90.90
38428;DHT22;24211;49.980;19.776;2023-07-31T10:56:17;32.80;90.80
38428;DHT22;24211;49.980;19.776;2023-07-31T10:59:01;32.80;90.60
38428;DHT22;24211;49.980;19.776;2023-07-31T11:01:50;32.80;90.50
38428;DHT22;24211;49.980;19.776;2023-07-31T11:04:23;32.80;91.10
38428;DHT22;24211;49.980;19.776;2023-07-31T11:07:02;32.90;92.10
38428;DHT22;24211;49.980;19.776;2023-07-31T11:09:35;33.30;91.60
38428;DHT22;24211;49.980;19.776;2023-07-31T11:12:03;33.50;91.40
38428;DHT22;24211;49.980;19.776;2023-07-31T11:14:33;33.60;91.90
38428;DHT22;24211;49.980;19.776;2023-07-31T11:17:08;34.00;90.90
38428;DHT22;24211;49.980;19.776;2023-07-31T11:19:37;34.30;89.50
38428;DHT22;24211;49.980;19.776;2023-07-31T11:22:05;34.10;89.00
38428;DHT22;24211;49.980;19.776;2023-07-31T11:24:37;33.90;88.60
38428;DHT22;24211;49.980;19.776;2023-07-31T11:27:07;33.80;87.90
38428;DHT22;24211;49.980;19.776;2023-07-31T11:29:39;33.80;89.80
38428;DHT22;24211;49.980;19.776;2023-07-31T11:32:16;33.90;87.70
38428;DHT22;24211;49.980;19.776;2023-07-31T11:34:55;33.80;86.50
38428;DHT22;24211;49.980;19.776;2023-07-31T11:37:23;33.90;86.70
38428;DHT22;24211;49.980;19.776;2023-07-31T11:40:00;34.00;86.80
38428;DHT22;24211;49.980;19.776;2023-07-31T11:42:31;34.20;85.40
38428;DHT22;24211;49.980;19.776;2023-07-31T11:45:08;34.00;84.40
38428;DHT22;24211;49.980;19.776;2023-07-31T11:47:41;34.00;84.50
38428;DHT22;24211;49.980;19.776;2023-07-31T11:50:10;33.90;84.80
38428;DHT22;24211;49.980;19.776;2023-07-31T11:52:43;33.80;85.10
38428;DHT22;24211;49.980;19.776;2023-07-31T11:55:13;33.60;85.50
38428;DHT22;24211;49.980;19.776;2023-07-31T11:57:43;33.70;84.70
38428;DHT22;24211;49.980;19.776;2023-07-31T12:00:16;33.80;84.20
38428;DHT22;24211;49.980;19.776;2023-07-31T12:02:50;34.00;83.10
38428;DHT22;24211;49.980;19.776;2023-07-31T12:05:22;34.00;83.10
38428;DHT22;24211;49.980;19.776;2023-07-31T12:08:14;34.20;83.60
38428;DHT22;24211;49.980;19.776;2023-07-31T12:10:42;34.40;83.40
38428;DHT22;24211;49.980;19.776;2023-07-31T12:13:19;34.60;83.00
38428;DHT22;24211;49.980;19.776;2023-07-31T12:15:54;34.70;83.20
38428;DHT22;24211;49.980;19.776;2023-07-31T12:18:26;35.10;80.50
38428;DHT22;24211;49.980;19.776;2023-07-31T12:20:59;35.20;80.40
38428;DHT22;24211;49.980;19.776;2023-07-31T12:23:34;35.40;80.10
38428;DHT22;24211;49.980;19.776;2023-07-31T12:26:14;35.50;79.30
38428;DHT22;24211;49.980;19.776;2023-07-31T12:28:47;35.60;79.10
38428;DHT22;24211;49.980;19.776;2023-07-31T12:31:20;35.90;77.50
38428;DHT22;24211;49.980;19.776;2023-07-31T12:33:51;36.20;76.40
38428;DHT22;24211;49.980;19.776;2023-07-31T12:36:22;36.40;75.90
38428;DHT22;24211;49.980;19.776;2023-07-31T12:39:09;36.40;75.70
38428;DHT22;24211;49.980;19.776;2023-07-31T12:41:42;36.00;75.60
38428;DHT22;24211;49.980;19.776;2023-07-31T12:44:10;35.70;75.70
38428;DHT22;24211;49.980;19.776;2023-07-31T12:46:39;35.40;76.00
38428;DHT22;24211;49.980;19.776;2023-07-31T12:49:07;35.10;76.10
38428;DHT22;24211;49.980;19.776;2023-07-31T12:51:38;35.00;76.40
38428;DHT22;24211;49.980;19.776;2023-07-31T12:54:05;34.60;77.00
38428;DHT22;24211;49.980;19.776;2023-07-31T12:56:33;34.40;77.80
38428;DHT22;24211;49.980;19.776;2023-07-31T12:59:02;34.30;78.70
38428;DHT22;24211;49.980;19.776;2023-07-31T13:01:31;34.20;78.70
38428;DHT22;24211;49.980;19.776;2023-07-31T13:03:59;34.30;78.30
38428;DHT22;24211;49.980;19.776;2023-07-31T13:06:29;34.50;77.00
38428;DHT22;24211;49.980;19.776;2023-07-31T13:08:56;34.60;76.50
38428;DHT22;24211;49.980;19.776;2023-07-31T13:11:24;34.60;77.30
38428;DHT22;24211;49.980;19.776;2023-07-31T13:13:59;34.90;77.80
38428;DHT22;24211;49.980;19.776;2023-07-31T13:16:26;35.30;77.10
38428;DHT22;24211;49.980;19.776;2023-07-31T13:18:55;35.30;77.70
38428;DHT22;24211;49.980;19.776;2023-07-31T13:21:22;35.30;79.00
38428;DHT22;24211;49.980;19.776;2023-07-31T13:23:50;35.50;78.00
38428;DHT22;24211;49.980;19.776;2023-07-31T13:26:17;35.70;77.30
38428;DHT22;24211;49.980;19.776;2023-07-31T13:28:44;35.80;77.40
38428;DHT22;24211;49.980;19.776;2023-07-31T13:31:17;36.20;76.40
38428;DHT22;24211;49.980;19.776;2023-07-31T13:33:44;36.40;75.00
38428;DHT22;24211;49.980;19.776;2023-07-31T13:36:16;36.60;74.10
38428;DHT22;24211;49.980;19.776;2023-07-31T13:38:43;36.50;74.20
38428;DHT22;24211;49.980;19.776;2023-07-31T13:41:18;36.30;76.10
38428;DHT22;24211;49.980;19.776;2023-07-31T13:43:45;36.60;75.10
38428;DHT22;24211;49.980;19.776;2023-07-31T13:46:15;37.30;73.00
38428;DHT22;24211;49.980;19.776;2023-07-31T13:48:43;37.00;73.10
38428;DHT22;24211;49.980;19.776;2023-07-31T13:51:10;36.60;74.40
38428;DHT22;24211;49.980;19.776;2023-07-31T13:53:38;36.50;75.30
38428;DHT22;24211;49.980;19.776;2023-07-31T13:56:05;36.30;75.80
38428;DHT22;24211;49.980;19.776;2023-07-31T13:58:33;36.40;75.30
38428;DHT22;24211;49.980;19.776;2023-07-31T14:01:08;36.40;75.10
38428;DHT22;24211;49.980;19.776;2023-07-31T14:03:36;36.30;74.50
38428;DHT22;24211;49.980;19.776;2023-07-31T14:06:04;36.20;75.20
38428;DHT22;24211;49.980;19.776;2023-07-31T14:08:37;36.10;75.50
38428;DHT22;24211;49.980;19.776;2023-07-31T14:11:06;36.40;75.00
38428;DHT22;24211;49.980;19.776;2023-07-31T14:13:33;36.50;74.20
38428;DHT22;24211;49.980;19.776;2023-07-31T14:16:09;36.70;74.30
38428;DHT22;24211;49.980;19.776;2023-07-31T14:18:50;36.60;74.60
38428;DHT22;24211;49.980;19.776;2023-07-31T14:21:18;36.60;75.20
38428;DHT22;24211;49.980;19.776;2023-07-31T14:23:46;36.80;75.80
38428;DHT22;24211;49.980;19.776;2023-07-31T14:26:14;37.00;75.10
38428;DHT22;24211;49.980;19.776;2023-07-31T14:28:42;37.10;75.00
38428;DHT22;24211;49.980;19.776;2023-07-31T14:31:15;37.30;74.80
38428;DHT22;24211;49.980;19.776;2023-07-31T14:33:42;37.50;74.60
38428;DHT22;24211;49.980;19.776;2023-07-31T14:36:15;37.50;74.60
38428;DHT22;24211;49.980;19.776;2023-07-31T14:38:42;37.40;75.00
38428;DHT22;24211;49.980;19.776;2023-07-31T14:41:16;37.30;75.50
38428;DHT22;24211;49.980;19.776;2023-07-31T14:43:43;37.70;74.00
38428;DHT22;24211;49.980;19.776;2023-07-31T14:46:11;37.80;73.30
38428;DHT22;24211;49.980;19.776;2023-07-31T14:48:39;38.00;73.30
38428;DHT22;24211;49.980;19.776;2023-07-31T14:51:07;38.20;72.20
38428;DHT22;24211;49.980;19.776;2023-07-31T14:53:34;38.50;71.00
38428;DHT22;24211;49.980;19.776;2023-07-31T14:56:02;38.10;71.10
38428;DHT22;24211;49.980;19.776;2023-07-31T14:58:31;37.70;72.70
38428;DHT22;24211;49.980;19.776;2023-07-31T15:01:03;37.30;74.10
38428;DHT22;24211;49.980;19.776;2023-07-31T15:03:55;37.00;74.80
38428;DHT22;24211;49.980;19.776;2023-07-31T15:06:25;36.80;75.00
38428;DHT22;24211;49.980;19.776;2023-07-31T15:08:52;36.70;74.80
38428;DHT22;24211;49.980;19.776;2023-07-31T15:11:20;36.80;73.20
38428;DHT22;24211;49.980;19.776;2023-07-31T15:13:47;36.90;72.30
38428;DHT22;24211;49.980;19.776;2023-07-31T15:16:15;36.80;72.60
38428;DHT22;24211;49.980;19.776;2023-07-31T15:18:50;36.70;71.10
38428;DHT22;24211;49.980;19.776;2023-07-31T15:21:17;36.60;71.60
38428;DHT22;24211;49.980;19.776;2023-07-31T15:23:45;36.30;73.20
38428;DHT22;24211;49.980;19.776;2023-07-31T15:26:13;36.20;72.70
38428;DHT22;24211;49.980;19.776;2023-07-31T15:28:41;36.10;72.90
38428;DHT22;24211;49.980;19.776;2023-07-31T15:31:08;36.20;71.60
38428;DHT22;24211;49.980;19.776;2023-07-31T15:33:36;36.30;72.00
38428;DHT22;24211;49.980;19.776;2023-07-31T15:36:06;36.10;72.40
38428;DHT22;24211;49.980;19.776;2023-07-31T15:38:38;36.00;72.20
38428;DHT22;24211;49.980;19.776;2023-07-31T15:41:06;35.90;71.20
38428;DHT22;24211;49.980;19.776;2023-07-31T15:43:33;35.70;71.50